sensor_id;sensor_type;location;lat;lon;timestamp;temperature;humidity
23869;DHT22;12115;47.128;15.422;2023-12-14T00:00:34;4.50;99.90
23869;DHT22;12115;47.128;15.422;2023-12-14T00:03:00;4.50;99.90
23869;DHT22;12115;47.128;15.422;2023-12-14T00:05:27;4.50;99.90
23869;DHT22;12115;47.128;15.422;2023-12-14T00:07:53;4.50;99.90
23869;DHT22;12115;47.128;15.422;2023-12-14T00:10:19;4.50;99.90
23869;DHT22;12115;47.128;15.422;2023-12-14T00:12:45;4.50;99.90
23869;DHT22;12115;47.128;15.422;2023-12-14T00:15:11;4.50;99.90
23869;DHT22;12115;47.128;15.422;2023-12-14T00:17:37;4.60;99.90
23869;DHT22;12115;47.128;15.422;2023-12-14T00:20:04;4.60;99.90
23869;DHT22;12115;47.128;15.422;2023-12-14T00:22:31;4.50;99.90
23869;DHT22;12115;47.128;15.422;2023-12-14T00:24:58;4.50;99.90
23869;DHT22;12115;47.128;15.422;2023-12-14T00:27:24;4.50;99.90
23869;DHT22;12115;47.128;15.422;2023-12-14T00:29:50;4.50;99.90
23869;DHT22;12115;47.128;15.422;2023-12-14T00:32:16;4.50;99.90
23869;DHT22;12115;47.128;15.422;2023-12-14T00:34:42;4.50;99.90
23869;DHT22;12115;47.128;15.422;2023-12-14T00:37:08;4.60;99.90
23869;DHT22;12115;47.128;15.422;2023-12-14T00:39:35;4.60;99.90
23869;DHT22;12115;47.128;15.422;2023-12-14T00:42:01;4.60;99.90
23869;DHT22;12115;47.128;15.422;2023-12-14T00:44:27;4.50;99.90
23869;DHT22;12115;47.128;15.422;2023-12-14T00:46:53;4.60;99.90
23869;DHT22;12115;47.128;15.422;2023-12-14T00:49:19;4.50;99.90
23869;DHT22;12115;47.128;15.422;2023-12-14T00:51:45;4.50;99.90
23869;DHT22;12115;47.128;15.422;2023-12-14T00:54:11;4.60;99.90
23869;DHT22;12115;47.128;15.422;2023-12-14T00:56:37;4.50;99.90
23869;DHT22;12115;47.128;15.422;2023-12-14T00:59:04;4.50;99.90
23869;DHT22;12115;47.128;15.422;2023-12-14T01:01:30;4.50;99.90
23869;DHT22;12115;47.128;15.422;2023-12-14T01:03:56;4.50;99.90
23869;DHT22;12115;47.128;15.422;2023-12-14T01:06:22;4.60;99.90
23869;DHT22;12115;47.128;15.422;2023-12-14T01:08:49;4.60;99.90
23869;DHT22;12115;47.128;15.422;2023-12-14T01:11:15;4.60;99.90
23869;DHT22;12115;47.128;15.422;2023-12-14T01:13:41;4.60;99.90
23869;DHT22;12115;47.128;15.422;2023-12-14T01:16:07;4.60;99.90
23869;DHT22;12115;47.128;15.422;2023-12-14T01:18:33;4.60;99.90
23869;DHT22;12115;47.128;15.422;2023-12-14T01:21:00;4.50;99.90
23869;DHT22;12115;47.128;15.422;2023-12-14T01:23:26;4.50;99.90
23869;DHT22;12115;47.128;15.422;2023-12-14T01:25:52;4.60;99.90
23869;DHT22;12115;47.128;15.422;2023-12-14T01:28:18;4.60;99.90
23869;DHT22;12115;47.128;15.422;2023-12-14T01:30:44;4.60;99.90
23869;DHT22;12115;47.128;15.422;2023-12-14T01:33:11;4.60;99.90
23869;DHT22;12115;47.128;15.422;2023-12-14T01:35:37;4.60;99.90
23869;DHT22;12115;47.128;15.422;2023-12-14T01:38:03;4.60;99.90
23869;DHT22;12115;47.128;15.422;2023-12-14T01:40:29;4.60;99.90
23869;DHT22;12115;47.128;15.422;2023-12-14T01:43:05;4.60;99.90
23869;DHT22;12115;47.128;15.422;2023-12-14T01:45:31;4.60;99.90
23869;DHT22;12115;47.128;15.422;2023-12-14T01:47:57;4.60;99.90
23869;DHT22;12115;47.128;15.422;2023-12-14T01:50:24;4.60;99.90
23869;DHT22;12115;47.128;15.422;2023-12-14T01:52:50;4.50;99.90
23869;DHT22;12115;47.128;15.422;2023-12-14T01:55:16;4.50;99.90
23869;DHT22;12115;47.128;15.422;2023-12-14T01:57:42;4.40;99.90
23869;DHT22;12115;47.128;15.422;2023-12-14T02:00:09;4.50;99.90
23869;DHT22;12115;47.128;15.422;2023-12-14T02:02:41;4.50;99.90
23869;DHT22;12115;47.128;15.422;2023-12-14T02:05:07;4.60;99.90
23869;DHT22;12115;47.128;15.422;2023-12-14T02:07:33;4.60;99.90
23869;DHT22;12115;47.128;15.422;2023-12-14T02:10:00;4.60;99.90
23869;DHT22;12115;47.128;15.422;2023-12-14T02:12:26;4.60;99.90
23869;DHT22;12115;47.128;15.422;2023-12-14T02:14:52;4.60;99.90
23869;DHT22;12115;47.128;15.422;2023-12-14T02:17:18;4.50;99.90
23869;DHT22;12115;47.128;15.422;2023-12-14T02:19:45;4.50;99.90
23869;DHT22;12115;47.128;15.422;2023-12-14T02:22:11;4.50;99.90
23869;DHT22;12115;47.128;15.422;2023-12-14T02:24:37;4.60;99.90
23869;DHT22;12115;47.128;15.422;2023-12-14T02:27:03;4.50;99.90
23869;DHT22;12115;47.128;15.422;2023-12-14T02:29:30;4.50;99.90
23869;DHT22;12115;47.128;15.422;2023-12-14T02:31:56;4.50;99.90
23869;DHT22;12115;47.128;15.422;2023-12-14T02:34:23;4.60;99.90
23869;DHT22;12115;47.128;15.422;2023-12-14T02:36:52;4.60;99.90
23869;DHT22;12115;47.128;15.422;2023-12-14T02:39:19;4.60;99.90
23869;DHT22;12115;47.128;15.422;2023-12-14T02:41:45;4.60;99.90
23869;DHT22;12115;47.128;15.422;2023-12-14T02:44:11;4.60;99.90
23869;DHT22;12115;47.128;15.422;2023-12-14T02:46:37;4.60;99.90
23869;DHT22;12115;47.128;15.422;2023-12-14T02:49:03;4.60;99.90
23869;DHT22;12115;47.128;15.422;2023-12-14T02:51:29;4.60;99.90
23869;DHT22;12115;47.128;15.422;2023-12-14T02:53:55;4.50;99.90
23869;DHT22;12115;47.128;15.422;2023-12-14T02:56:23;4.60;99.90
23869;DHT22;12115;47.128;15.422;2023-12-14T02:58:50;4.60;99.90
23869;DHT22;12115;47.128;15.422;2023-12-14T03:01:20;4.50;99.90
23869;DHT22;12115;47.128;15.422;2023-12-14T03:03:47;4.60;99.90
23869;DHT22;12115;47.128;15.422;2023-12-14T03:06:13;4.50;99.90
23869;DHT22;12115;47.128;15.422;2023-12-14T03:08:39;4.50;99.90
23869;DHT22;12115;47.128;15.422;2023-12-14T03:11:05;4.40;99.90
23869;DHT22;12115;47.128;15.422;2023-12-14T03:13:32;4.50;99.90
23869;DHT22;12115;47.128;15.422;2023-12-14T03:15:58;4.50;99.90
23869;DHT22;12115;47.128;15.422;2023-12-14T03:18:24;4.50;99.90
23869;DHT22;12115;47.128;15.422;2023-12-14T03:20:50;4.50;99.90
23869;DHT22;12115;47.128;15.422;2023-12-14T03:23:16;4.50;99.90
23869;DHT22;12115;47.128;15.422;2023-12-14T03:25:43;4.50;99.90
23869;DHT22;12115;47.128;15.422;2023-12-14T03:28:09;4.50;99.90
23869;DHT22;12115;47.128;15.422;2023-12-14T03:30:35;4.50;99.90
23869;DHT22;12115;47.128;15.422;2023-12-14T03:33:01;4.50;99.90
23869;DHT22;12115;47.128;15.422;2023-12-14T03:35:27;4.50;99.90
23869;DHT22;12115;47.128;15.422;2023-12-14T03:37:53;4.50;99.90
23869;DHT22;12115;47.128;15.422;2023-12-14T03:40:20;4.50;99.90
23869;DHT22;12115;47.128;15.422;2023-12-14T03:42:46;4.50;99.90
23869;DHT22;12115;47.128;15.422;2023-12-14T03:45:12;4.50;99.90
23869;DHT22;12115;47.128;15.422;2023-12-14T03:47:38;4.60;99.90
23869;DHT22;12115;47.128;15.422;2023-12-14T03:50:04;4.50;99.90
23869;DHT22;12115;47.128;15.422;2023-12-14T03:52:31;4.50;99.90
23869;DHT22;12115;47.128;15.422;2023-12-14T03:54:57;4.50;99.90
23869;DHT22;12115;47.128;15.422;2023-12-14T03:57:23;4.50;99.90
23869;DHT22;12115;47.128;15.422;2023-12-14T03:59:49;4.50;99.90
23869;DHT22;12115;47.128;15.422;2023-12-14T04:02:15;4.40;99.90
23869;DHT22;12115;47.128;15.422;2023-12-14T04:04:42;4.50;99.90
23869;DHT22;12115;47.128;15.422;2023-12-14T04:07:08;4.50;99.90
23869;DHT22;12115;47.128;15.422;2023-12-14T04:09:34;4.50;99.90
23869;DHT22;12115;47.128;15.422;2023-12-14T04:12:00;4.50;99.90
23869;DHT22;12115;47.128;15.422;2023-12-14T04:14:26;4.50;99.90
23869;DHT22;12115;47.128;15.422;2023-12-14T04:16:52;4.50;99.90
23869;DHT22;12115;47.128;15.422;2023-12-14T04:19:20;4.50;99.90
23869;DHT22;12115;47.128;15.422;2023-12-14T04:21:48;4.40;99.90
23869;DHT22;12115;47.128;15.422;2023-12-14T04:24:14;4.50;99.90
23869;DHT22;12115;47.128;15.422;2023-12-14T04:26:41;4.40;99.90
23869;DHT22;12115;47.128;15.422;2023-12-14T04:29:07;4.50;99.90
23869;DHT22;12115;47.128;15.422;2023-12-14T04:31:34;4.40;99.90
23869;DHT22;12115;47.128;15.422;2023-12-14T04:34:00;4.40;99.90
23869;DHT22;12115;47.128;15.422;2023-12-14T04:36:26;4.40;99.90
23869;DHT22;12115;47.128;15.422;2023-12-14T04:38:52;4.40;99.90
23869;DHT22;12115;47.128;15.422;2023-12-14T04:41:19;4.50;99.90
23869;DHT22;12115;47.128;15.422;2023-12-14T04:43:45;4.40;99.90
23869;DHT22;12115;47.128;15.422;2023-12-14T04:46:11;4.40;99.90
23869;DHT22;12115;47.128;15.422;2023-12-14T04:48:38;4.50;99.90
23869;DHT22;12115;47.128;15.422;2023-12-14T04:51:04;4.50;99.90
23869;DHT22;12115;47.128;15.422;2023-12-14T04:53:30;4.50;99.90
23869;DHT22;12115;47.128;15.422;2023-12-14T04:55:56;4.40;99.90
23869;DHT22;12115;47.128;15.422;2023-12-14T04:58:22;4.50;99.90
23869;DHT22;12115;47.128;15.422;2023-12-14T05:00:49;4.40;99.90
23869;DHT22;12115;47.128;15.422;2023-12-14T05:03:15;4.40;99.90
23869;DHT22;12115;47.128;15.422;2023-12-14T05:05:41;4.40;99.90
23869;DHT22;12115;47.128;15.422;2023-12-14T05:08:07;4.40;99.90
23869;DHT22;12115;47.128;15.422;2023-12-14T05:10:33;4.40;99.90
23869;DHT22;12115;47.128;15.422;2023-12-14T05:13:02;4.40;99.90
23869;DHT22;12115;47.128;15.422;2023-12-14T05:15:28;4.40;99.90
23869;DHT22;12115;47.128;15.422;2023-12-14T05:17:54;4.50;99.90
23869;DHT22;12115;47.128;15.422;2023-12-14T05:20:20;4.50;99.90
23869;DHT22;12115;47.128;15.422;2023-12-14T05:22:47;4.50;99.90
23869;DHT22;12115;47.128;15.422;2023-12-14T05:25:13;4.40;99.90
23869;DHT22;12115;47.128;15.422;2023-12-14T05:27:40;4.40;99.90
23869;DHT22;12115;47.128;15.422;2023-12-14T05:30:07;4.40;99.90
23869;DHT22;12115;47.128;15.422;2023-12-14T05:32:33;4.40;99.90
23869;DHT22;12115;47.128;15.422;2023-12-14T05:35:00;4.40;99.90
23869;DHT22;12115;47.128;15.422;2023-12-14T05:37:26;4.50;99.90
23869;DHT22;12115;47.128;15.422;2023-12-14T05:39:52;4.40;99.90
23869;DHT22;12115;47.128;15.422;2023-12-14T05:42:18;4.40;99.90
23869;DHT22;12115;47.128;15.422;2023-12-14T05:44:44;4.40;99.90
23869;DHT22;12115;47.128;15.422;2023-12-14T05:47:11;4.40;99.90
23869;DHT22;12115;47.128;15.422;2023-12-14T05:49:40;4.40;99.90
23869;DHT22;12115;47.128;15.422;2023-12-14T05:52:06;4.40;99.90
23869;DHT22;12115;47.128;15.422;2023-12-14T05:54:33;4.40;99.90
23869;DHT22;12115;47.128;15.422;2023-12-14T05:57:02;4.40;99.90
23869;DHT22;12115;47.128;15.422;2023-12-14T05:59:31;4.40;99.90
23869;DHT22;12115;47.128;15.422;2023-12-14T06:01:57;4.40;99.90
23869;DHT22;12115;47.128;15.422;2023-12-14T06:04:24;4.50;99.90
23869;DHT22;12115;47.128;15.422;2023-12-14T06:06:50;4.40;99.90
23869;DHT22;12115;47.128;15.422;2023-12-14T06:09:17;4.40;99.90
23869;DHT22;12115;47.128;15.422;2023-12-14T06:11:46;4.40;99.90
23869;DHT22;12115;47.128;15.422;2023-12-14T06:14:14;4.40;99.90
23869;DHT22;12115;47.128;15.422;2023-12-14T06:16:40;4.40;99.90
23869;DHT22;12115;47.128;15.422;2023-12-14T06:19:06;4.40;99.90
23869;DHT22;12115;47.128;15.422;2023-12-14T06:21:32;4.40;99.90
23869;DHT22;12115;47.128;15.422;2023-12-14T06:23:59;4.40;99.90
23869;DHT22;12115;47.128;15.422;2023-12-14T06:26:26;4.40;99.90
23869;DHT22;12115;47.128;15.422;2023-12-14T06:28:52;4.40;99.90
23869;DHT22;12115;47.128;15.422;2023-12-14T06:31:18;4.40;99.90
23869;DHT22;12115;47.128;15.422;2023-12-14T06:33:47;4.50;99.90
23869;DHT22;12115;47.128;15.422;2023-12-14T06:36:15;4.40;99.90
23869;DHT22;12115;47.128;15.422;2023-12-14T06:38:44;4.40;99.90
23869;DHT22;12115;47.128;15.422;2023-12-14T06:41:28;4.40;99.90
23869;DHT22;12115;47.128;15.422;2023-12-14T06:43:55;4.30;99.90
23869;DHT22;12115;47.128;15.422;2023-12-14T06:46:21;4.30;99.90
23869;DHT22;12115;47.128;15.422;2023-12-14T06:48:47;4.30;99.90
23869;DHT22;12115;47.128;15.422;2023-12-14T06:51:14;4.30;99.90
23869;DHT22;12115;47.128;15.422;2023-12-14T06:53:41;4.40;99.90
23869;DHT22;12115;47.128;15.422;2023-12-14T06:56:09;4.40;99.90
23869;DHT22;12115;47.128;15.422;2023-12-14T06:58:37;4.40;99.90
23869;DHT22;12115;47.128;15.422;2023-12-14T07:01:03;4.40;99.90
23869;DHT22;12115;47.128;15.422;2023-12-14T07:03:29;4.40;99.90
23869;DHT22;12115;47.128;15.422;2023-12-14T07:05:56;4.30;99.90
23869;DHT22;12115;47.128;15.422;2023-12-14T07:08:23;4.40;99.90
23869;DHT22;12115;47.128;15.422;2023-12-14T07:10:49;4.40;99.90
23869;DHT22;12115;47.128;15.422;2023-12-14T07:13:16;4.40;99.90
23869;DHT22;12115;47.128;15.422;2023-12-14T07:15:42;4.40;99.90
23869;DHT22;12115;47.128;15.422;2023-12-14T07:18:08;4.40;99.90
23869;DHT22;12115;47.128;15.422;2023-12-14T07:20:34;4.40;99.90
23869;DHT22;12115;47.128;15.422;2023-12-14T07:23:00;4.40;99.90
23869;DHT22;12115;47.128;15.422;2023-12-14T07:25:27;4.40;99.90
23869;DHT22;12115;47.128;15.422;2023-12-14T07:27:53;4.40;99.90
23869;DHT22;12115;47.128;15.422;2023-12-14T07:30:19;4.40;99.90
23869;DHT22;12115;47.128;15.422;2023-12-14T07:32:45;4.40;99.90
23869;DHT22;12115;47.128;15.422;2023-12-14T07:35:12;4.40;99.90
23869;DHT22;12115;47.128;15.422;2023-12-14T07:37:38;4.40;99.90
23869;DHT22;12115;47.128;15.422;2023-12-14T07:40:05;4.50;99.90
23869;DHT22;12115;47.128;15.422;2023-12-14T07:42:31;4.50;99.90
23869;DHT22;12115;47.128;15.422;2023-12-14T07:44:57;4.50;99.90
23869;DHT22;12115;47.128;15.422;2023-12-14T07:47:23;4.50;99.90
23869;DHT22;12115;47.128;15.422;2023-12-14T07:49:50;4.50;99.90
23869;DHT22;12115;47.128;15.422;2023-12-14T07:52:16;4.50;99.90
23869;DHT22;12115;47.128;15.422;2023-12-14T07:54:42;4.60;99.90
23869;DHT22;12115;47.128;15.422;2023-12-14T07:57:08;4.60;99.90
23869;DHT22;12115;47.128;15.422;2023-12-14T07:59:34;4.60;99.90
23869;DHT22;12115;47.128;15.422;2023-12-14T08:02:01;4.60;99.90
23869;DHT22;12115;47.128;15.422;2023-12-14T08:04:27;4.60;99.90
23869;DHT22;12115;47.128;15.422;2023-12-14T08:06:53;4.60;99.90
23869;DHT22;12115;47.128;15.422;2023-12-14T08:09:19;4.60;99.90
23869;DHT22;12115;47.128;15.422;2023-12-14T08:11:45;4.70;99.90
23869;DHT22;12115;47.128;15.422;2023-12-14T08:14:12;4.70;99.90
23869;DHT22;12115;47.128;15.422;2023-12-14T08:16:38;4.70;99.90
23869;DHT22;12115;47.128;15.422;2023-12-14T08:19:04;4.70;99.90
23869;DHT22;12115;47.128;15.422;2023-12-14T08:21:30;4.80;99.90
23869;DHT22;12115;47.128;15.422;2023-12-14T08:23:56;4.80;99.90
23869;DHT22;12115;47.128;15.422;2023-12-14T08:26:23;4.80;99.90
23869;DHT22;12115;47.128;15.422;2023-12-14T08:28:49;4.80;99.90
23869;DHT22;12115;47.128;15.422;2023-12-14T08:31:15;4.90;99.90
23869;DHT22;12115;47.128;15.422;2023-12-14T08:33:41;5.00;99.90
23869;DHT22;12115;47.128;15.422;2023-12-14T08:36:14;5.00;99.90
23869;DHT22;12115;47.128;15.422;2023-12-14T08:38:40;5.10;99.90
23869;DHT22;12115;47.128;15.422;2023-12-14T08:41:06;5.10;99.90
23869;DHT22;12115;47.128;15.422;2023-12-14T08:43:33;5.20;99.90
23869;DHT22;12115;47.128;15.422;2023-12-14T08:45:59;5.20;99.90
23869;DHT22;12115;47.128;15.422;2023-12-14T08:48:25;5.30;99.90
23869;DHT22;12115;47.128;15.422;2023-12-14T08:50:53;5.40;99.90
23869;DHT22;12115;47.128;15.422;2023-12-14T08:53:19;5.40;99.90
23869;DHT22;12115;47.128;15.422;2023-12-14T08:55:45;5.40;99.90
23869;DHT22;12115;47.128;15.422;2023-12-14T08:58:12;5.50;99.90
23869;DHT22;12115;47.128;15.422;2023-12-14T09:00:38;5.50;99.90
23869;DHT22;12115;47.128;15.422;2023-12-14T09:03:06;5.60;99.90
23869;DHT22;12115;47.128;15.422;2023-12-14T09:05:32;5.60;99.90
23869;DHT22;12115;47.128;15.422;2023-12-14T09:07:59;5.60;99.90
23869;DHT22;12115;47.128;15.422;2023-12-14T09:10:25;5.70;99.90
23869;DHT22;12115;47.128;15.422;2023-12-14T09:12:51;5.80;99.90
23869;DHT22;12115;47.128;15.422;2023-12-14T09:15:18;5.80;99.90
23869;DHT22;12115;47.128;15.422;2023-12-14T09:17:44;5.80;99.90
23869;DHT22;12115;47.128;15.422;2023-12-14T09:20:10;5.90;99.90
23869;DHT22;12115;47.128;15.422;2023-12-14T09:22:37;5.90;99.90
23869;DHT22;12115;47.128;15.422;2023-12-14T09:25:04;6.00;99.90
23869;DHT22;12115;47.128;15.422;2023-12-14T09:27:30;6.10;99.90
23869;DHT22;12115;47.128;15.422;2023-12-14T09:29:56;6.20;99.90
23869;DHT22;12115;47.128;15.422;2023-12-14T09:32:22;6.20;99.90
23869;DHT22;12115;47.128;15.422;2023-12-14T09:34:48;6.30;99.90
23869;DHT22;12115;47.128;15.422;2023-12-14T09:37:14;6.40;99.90
23869;DHT22;12115;47.128;15.422;2023-12-14T09:39:41;6.50;99.90
23869;DHT22;12115;47.128;15.422;2023-12-14T09:42:07;6.60;99.90
23869;DHT22;12115;47.128;15.422;2023-12-14T09:44:34;6.60;99.90
23869;DHT22;12115;47.128;15.422;2023-12-14T09:47:01;6.70;99.90
23869;DHT22;12115;47.128;15.422;2023-12-14T09:49:30;6.80;99.90
23869;DHT22;12115;47.128;15.422;2023-12-14T09:51:57;6.80;99.90
23869;DHT22;12115;47.128;15.422;2023-12-14T09:54:23;6.90;99.90
23869;DHT22;12115;47.128;15.422;2023-12-14T09:56:49;6.90;99.90
23869;DHT22;12115;47.128;15.422;2023-12-14T09:59:15;7.00;99.90
23869;DHT22;12115;47.128;15.422;2023-12-14T10:01:42;7.10;99.90
23869;DHT22;12115;47.128;15.422;2023-12-14T10:04:12;7.30;99.90
23869;DHT22;12115;47.128;15.422;2023-12-14T10:06:39;7.30;99.90
23869;DHT22;12115;47.128;15.422;2023-12-14T10:09:05;7.40;99.90
23869;DHT22;12115;47.128;15.422;2023-12-14T10:11:42;7.40;99.90
23869;DHT22;12115;47.128;15.422;2023-12-14T10:14:22;7.50;99.90
23869;DHT22;12115;47.128;15.422;2023-12-14T10:16:49;7.50;99.90
23869;DHT22;12115;47.128;15.422;2023-12-14T10:19:16;7.50;99.90
23869;DHT22;12115;47.128;15.422;2023-12-14T10:21:43;7.50;99.90
23869;DHT22;12115;47.128;15.422;2023-12-14T10:24:09;7.50;99.90
23869;DHT22;12115;47.128;15.422;2023-12-14T10:26:36;7.50;99.90
23869;DHT22;12115;47.128;15.422;2023-12-14T10:29:02;7.50;99.90
23869;DHT22;12115;47.128;15.422;2023-12-14T10:31:30;7.50;99.90
23869;DHT22;12115;47.128;15.422;2023-12-14T10:33:57;7.70;99.90
23869;DHT22;12115;47.128;15.422;2023-12-14T10:36:24;8.10;99.90
23869;DHT22;12115;47.128;15.422;2023-12-14T10:38:55;8.30;99.90
23869;DHT22;12115;47.128;15.422;2023-12-14T10:41:22;8.30;99.90
23869;DHT22;12115;47.128;15.422;2023-12-14T10:43:55;8.30;99.90
23869;DHT22;12115;47.128;15.422;2023-12-14T10:46:46;8.30;99.90
23869;DHT22;12115;47.128;15.422;2023-12-14T10:49:13;8.60;99.90
23869;DHT22;12115;47.128;15.422;2023-12-14T10:51:41;9.00;99.90
23869;DHT22;12115;47.128;15.422;2023-12-14T10:54:08;9.10;99.90
23869;DHT22;12115;47.128;15.422;2023-12-14T10:56:35;9.50;99.90
23869;DHT22;12115;47.128;15.422;2023-12-14T10:59:01;9.60;99.90
23869;DHT22;12115;47.128;15.422;2023-12-14T11:01:29;9.60;99.90
23869;DHT22;12115;47.128;15.422;2023-12-14T11:03:58;9.60;99.90
23869;DHT22;12115;47.128;15.422;2023-12-14T11:08:56;9.60;99.90
23869;DHT22;12115;47.128;15.422;2023-12-14T11:11:22;9.70;99.90
23869;DHT22;12115;47.128;15.422;2023-12-14T11:13:50;9.70;99.90
23869;DHT22;12115;47.128;15.422;2023-12-14T11:16:21;10.50;99.90
23869;DHT22;12115;47.128;15.422;2023-12-14T11:18:48;11.00;99.90
23869;DHT22;12115;47.128;15.422;2023-12-14T11:21:18;10.70;99.90
23869;DHT22;12115;47.128;15.422;2023-12-14T11:23:45;10.50;99.90
23869;DHT22;12115;47.128;15.422;2023-12-14T11:26:14;10.30;99.90
23869;DHT22;12115;47.128;15.422;2023-12-14T11:28:47;10.20;99.90
23869;DHT22;12115;47.128;15.422;2023-12-14T11:31:14;10.20;99.90
23869;DHT22;12115;47.128;15.422;2023-12-14T11:33:40;10.10;99.90
23869;DHT22;12115;47.128;15.422;2023-12-14T11:36:13;10.00;99.90
23869;DHT22;12115;47.128;15.422;2023-12-14T11:38:41;10.00;99.90
23869;DHT22;12115;47.128;15.422;2023-12-14T11:41:07;9.90;99.90
23869;DHT22;12115;47.128;15.422;2023-12-14T11:43:40;9.90;99.90
23869;DHT22;12115;47.128;15.422;2023-12-14T11:46:07;9.90;99.90
23869;DHT22;12115;47.128;15.422;2023-12-14T11:48:33;9.90;99.90
23869;DHT22;12115;47.128;15.422;2023-12-14T11:50:59;9.90;99.90
23869;DHT22;12115;47.128;15.422;2023-12-14T11:53:26;9.80;99.90
23869;DHT22;12115;47.128;15.422;2023-12-14T11:55:53;9.80;99.90
23869;DHT22;12115;47.128;15.422;2023-12-14T11:58:19;9.80;99.90
23869;DHT22;12115;47.128;15.422;2023-12-14T12:00:45;9.70;99.90
23869;DHT22;12115;47.128;15.422;2023-12-14T12:08:09;9.60;99.90
23869;DHT22;12115;47.128;15.422;2023-12-14T12:10:36;9.60;99.90
23869;DHT22;12115;47.128;15.422;2023-12-14T12:13:03;9.60;99.90
23869;DHT22;12115;47.128;15.422;2023-12-14T12:15:34;9.60;99.90
23869;DHT22;12115;47.128;15.422;2023-12-14T12:18:02;9.60;99.90
23869;DHT22;12115;47.128;15.422;2023-12-14T12:20:28;9.60;99.90
23869;DHT22;12115;47.128;15.422;2023-12-14T12:22:55;9.60;99.90
23869;DHT22;12115;47.128;15.422;2023-12-14T12:25:21;9.60;99.90
23869;DHT22;12115;47.128;15.422;2023-12-14T12:27:48;9.60;99.90
23869;DHT22;12115;47.128;15.422;2023-12-14T12:30:15;9.60;99.90
23869;DHT22;12115;47.128;15.422;2023-12-14T12:32:41;9.60;99.90
23869;DHT22;12115;47.128;15.422;2023-12-14T12:35:08;9.70;99.90
23869;DHT22;12115;47.128;15.422;2023-12-14T12:37:34;9.70;99.90
23869;DHT22;12115;47.128;15.422;2023-12-14T12:40:00;9.70;99.90
23869;DHT22;12115;47.128;15.422;2023-12-14T12:42:27;9.60;99.90
23869;DHT22;12115;47.128;15.422;2023-12-14T12:44:53;9.60;99.90
23869;DHT22;12115;47.128;15.422;2023-12-14T12:47:19;9.60;99.90
23869;DHT22;12115;47.128;15.422;2023-12-14T12:49:45;9.60;99.90
23869;DHT22;12115;47.128;15.422;2023-12-14T12:52:11;9.70;99.90
23869;DHT22;12115;47.128;15.422;2023-12-14T12:54:37;9.70;99.90
23869;DHT22;12115;47.128;15.422;2023-12-14T12:57:04;9.70;99.90
23869;DHT22;12115;47.128;15.422;2023-12-14T12:59:30;9.70;99.90
23869;DHT22;12115;47.128;15.422;2023-12-14T13:01:56;9.70;99.90
23869;DHT22;12115;47.128;15.422;2023-12-14T13:04:23;9.70;99.90
23869;DHT22;12115;47.128;15.422;2023-12-14T13:06:49;9.70;99.90
23869;DHT22;12115;47.128;15.422;2023-12-14T13:09:16;9.70;99.90
23869;DHT22;12115;47.128;15.422;2023-12-14T13:11:43;9.70;99.90
23869;DHT22;12115;47.128;15.422;2023-12-14T13:14:09;9.70;99.90
23869;DHT22;12115;47.128;15.422;2023-12-14T13:16:36;9.60;99.90
23869;DHT22;12115;47.128;15.422;2023-12-14T13:19:02;9.60;99.90
23869;DHT22;12115;47.128;15.422;2023-12-14T13:21:30;9.60;99.90
23869;DHT22;12115;47.128;15.422;2023-12-14T13:23:56;9.50;99.90
23869;DHT22;12115;47.128;15.422;2023-12-14T13:26:25;9.40;99.90
23869;DHT22;12115;47.128;15.422;2023-12-14T13:28:51;9.40;99.90
23869;DHT22;12115;47.128;15.422;2023-12-14T13:31:18;9.40;99.90
23869;DHT22;12115;47.128;15.422;2023-12-14T13:33:45;9.40;99.90
23869;DHT22;12115;47.128;15.422;2023-12-14T13:36:12;9.40;99.90
23869;DHT22;12115;47.128;15.422;2023-12-14T13:38:38;9.40;99.90
23869;DHT22;12115;47.128;15.422;2023-12-14T13:41:04;9.40;99.90
23869;DHT22;12115;47.128;15.422;2023-12-14T13:43:31;9.40;99.90
23869;DHT22;12115;47.128;15.422;2023-12-14T13:45:57;9.40;99.90
23869;DHT22;12115;47.128;15.422;2023-12-14T13:48:40;9.40;99.90
23869;DHT22;12115;47.128;15.422;2023-12-14T13:51:07;9.40;99.90
23869;DHT22;12115;47.128;15.422;2023-12-14T13:53:34;9.40;99.90
23869;DHT22;12115;47.128;15.422;2023-12-14T13:56:00;9.50;99.90
23869;DHT22;12115;47.128;15.422;2023-12-14T13:58:26;9.50;99.90
23869;DHT22;12115;47.128;15.422;2023-12-14T14:00:54;9.50;99.90
23869;DHT22;12115;47.128;15.422;2023-12-14T14:03:20;9.40;99.90
23869;DHT22;12115;47.128;15.422;2023-12-14T14:05:46;9.40;99.90
23869;DHT22;12115;47.128;15.422;2023-12-14T14:08:12;9.40;99.90
23869;DHT22;12115;47.128;15.422;2023-12-14T14:10:43;9.40;99.90
23869;DHT22;12115;47.128;15.422;2023-12-14T14:13:09;9.30;99.90
23869;DHT22;12115;47.128;15.422;2023-12-14T14:15:36;9.30;99.90
23869;DHT22;12115;47.128;15.422;2023-12-14T14:18:02;9.30;99.90
23869;DHT22;12115;47.128;15.422;2023-12-14T14:20:29;9.30;99.90
23869;DHT22;12115;47.128;15.422;2023-12-14T14:22:55;9.30;99.90
23869;DHT22;12115;47.128;15.422;2023-12-14T14:25:23;9.20;99.90
23869;DHT22;12115;47.128;15.422;2023-12-14T14:27:49;9.20;99.90
23869;DHT22;12115;47.128;15.422;2023-12-14T14:30:15;9.20;99.90
23869;DHT22;12115;47.128;15.422;2023-12-14T14:32:42;9.20;99.90
23869;DHT22;12115;47.128;15.422;2023-12-14T14:35:08;9.20;99.90
23869;DHT22;12115;47.128;15.422;2023-12-14T14:37:34;9.10;99.90
23869;DHT22;12115;47.128;15.422;2023-12-14T14:40:01;9.10;99.90
23869;DHT22;12115;47.128;15.422;2023-12-14T14:42:27;9.10;99.90
23869;DHT22;12115;47.128;15.422;2023-12-14T14:44:54;9.10;99.90
23869;DHT22;12115;47.128;15.422;2023-12-14T14:47:20;9.10;99.90
23869;DHT22;12115;47.128;15.422;2023-12-14T14:49:48;8.80;99.90
23869;DHT22;12115;47.128;15.422;2023-12-14T14:52:14;8.80;99.90
23869;DHT22;12115;47.128;15.422;2023-12-14T14:54:41;8.80;99.90
23869;DHT22;12115;47.128;15.422;2023-12-14T14:57:07;8.80;99.90
23869;DHT22;12115;47.128;15.422;2023-12-14T14:59:35;8.70;99.90
23869;DHT22;12115;47.128;15.422;2023-12-14T15:02:02;8.70;99.90
23869;DHT22;12115;47.128;15.422;2023-12-14T15:04:29;8.60;99.90
23869;DHT22;12115;47.128;15.422;2023-12-14T15:06:55;8.60;99.90
23869;DHT22;12115;47.128;15.422;2023-12-14T15:09:22;8.60;99.90
23869;DHT22;12115;47.128;15.422;2023-12-14T15:11:48;8.60;99.90
23869;DHT22;12115;47.128;15.422;2023-12-14T15:14:15;8.50;99.90
23869;DHT22;12115;47.128;15.422;2023-12-14T15:16:41;8.50;99.90
23869;DHT22;12115;47.128;15.422;2023-12-14T15:19:07;8.30;99.90
23869;DHT22;12115;47.128;15.422;2023-12-14T15:21:34;8.30;99.90
23869;DHT22;12115;47.128;15.422;2023-12-14T15:24:00;8.30;99.90
23869;DHT22;12115;47.128;15.422;2023-12-14T15:26:26;8.20;99.90
23869;DHT22;12115;47.128;15.422;2023-12-14T15:28:56;8.20;99.90
23869;DHT22;12115;47.128;15.422;2023-12-14T15:31:23;8.00;99.90
23869;DHT22;12115;47.128;15.422;2023-12-14T15:33:49;8.00;99.90